sensor_id;sensor_type;location;lat;lon;timestamp;temperature;humidity
3770;DHT22;1900;48.890;9.190;2022-10-23T00:01:28;19.30;63.20
3770;DHT22;1900;48.890;9.190;2022-10-23T00:06:26;19.20;63.20
3770;DHT22;1900;48.890;9.190;2022-10-23T00:08:52;19.20;63.20
3770;DHT22;1900;48.890;9.190;2022-10-23T00:11:22;19.20;63.20
3770;DHT22;1900;48.890;9.190;2022-10-23T00:13:49;19.20;63.20
3770;DHT22;1900;48.890;9.190;2022-10-23T00:16:15;19.20;63.20
3770;DHT22;1900;48.890;9.190;2022-10-23T00:18:41;19.20;63.20
3770;DHT22;1900;48.890;9.190;2022-10-23T00:21:09;19.10;63.10
3770;DHT22;1900;48.890;9.190;2022-10-23T00:23:35;19.10;63.20
3770;DHT22;1900;48.890;9.190;2022-10-23T00:26:02;19.10;63.20
3770;DHT22;1900;48.890;9.190;2022-10-23T00:28:28;19.10;63.30
3770;DHT22;1900;48.890;9.190;2022-10-23T00:30:53;19.10;63.30
3770;DHT22;1900;48.890;9.190;2022-10-23T00:33:19;19.10;63.30
3770;DHT22;1900;48.890;9.190;2022-10-23T00:35:45;19.10;63.30
3770;DHT22;1900;48.890;9.190;2022-10-23T00:38:11;19.10;63.30
3770;DHT22;1900;48.890;9.190;2022-10-23T00:40:38;19.10;63.30
3770;DHT22;1900;48.890;9.190;2022-10-23T00:43:05;19.10;63.30
3770;DHT22;1900;48.890;9.190;2022-10-23T00:45:32;19.10;63.40
3770;DHT22;1900;48.890;9.190;2022-10-23T00:47:59;19.10;63.30
3770;DHT22;1900;48.890;9.190;2022-10-23T00:50:29;19.10;63.30
3770;DHT22;1900;48.890;9.190;2022-10-23T00:52:59;19.10;63.30
3770;DHT22;1900;48.890;9.190;2022-10-23T00:55:27;19.00;63.10
3770;DHT22;1900;48.890;9.190;2022-10-23T00:57:53;19.00;63.10
3770;DHT22;1900;48.890;9.190;2022-10-23T01:00:23;19.00;63.10
3770;DHT22;1900;48.890;9.190;2022-10-23T01:02:49;19.00;63.10
3770;DHT22;1900;48.890;9.190;2022-10-23T01:05:15;19.00;63.10
3770;DHT22;1900;48.890;9.190;2022-10-23T01:08:03;18.90;62.90
3770;DHT22;1900;48.890;9.190;2022-10-23T01:10:48;18.90;63.00
3770;DHT22;1900;48.890;9.190;2022-10-23T01:13:29;18.90;63.00
3770;DHT22;1900;48.890;9.190;2022-10-23T01:16:38;18.90;63.00
3770;DHT22;1900;48.890;9.190;2022-10-23T01:19:15;18.80;63.00
3770;DHT22;1900;48.890;9.190;2022-10-23T01:27:30;18.70;63.60
3770;DHT22;1900;48.890;9.190;2022-10-23T01:30:08;18.70;63.00
3770;DHT22;1900;48.890;9.190;2022-10-23T01:35:12;18.60;62.90
3770;DHT22;1900;48.890;9.190;2022-10-23T01:37:42;18.60;63.00
3770;DHT22;1900;48.890;9.190;2022-10-23T01:40:24;18.60;63.00
3770;DHT22;1900;48.890;9.190;2022-10-23T01:42:54;18.60;63.00
3770;DHT22;1900;48.890;9.190;2022-10-23T01:45:27;18.60;63.10
3770;DHT22;1900;48.890;9.190;2022-10-23T01:47:56;18.50;62.90
3770;DHT22;1900;48.890;9.190;2022-10-23T01:50:25;18.50;62.90
3770;DHT22;1900;48.890;9.190;2022-10-23T01:52:59;18.50;62.90
3770;DHT22;1900;48.890;9.190;2022-10-23T01:55:25;18.50;62.90
3770;DHT22;1900;48.890;9.190;2022-10-23T01:57:52;18.40;62.80
3770;DHT22;1900;48.890;9.190;2022-10-23T02:00:19;18.40;62.90
3770;DHT22;1900;48.890;9.190;2022-10-23T02:02:52;18.40;62.90
3770;DHT22;1900;48.890;9.190;2022-10-23T02:05:24;18.40;62.90
3770;DHT22;1900;48.890;9.190;2022-10-23T02:07:51;18.40;62.90
3770;DHT22;1900;48.890;9.190;2022-10-23T02:10:18;18.40;62.90
3770;DHT22;1900;48.890;9.190;2022-10-23T02:14:06;18.30;62.80
3770;DHT22;1900;48.890;9.190;2022-10-23T02:21:13;18.30;62.90
3770;DHT22;1900;48.890;9.190;2022-10-23T02:23:58;18.30;63.00
3770;DHT22;1900;48.890;9.190;2022-10-23T02:26:35;18.30;63.10
3770;DHT22;1900;48.890;9.190;2022-10-23T02:29:17;18.20;62.90
3770;DHT22;1900;48.890;9.190;2022-10-23T02:31:45;18.20;62.90
3770;DHT22;1900;48.890;9.190;2022-10-23T02:34:11;18.20;62.90
3770;DHT22;1900;48.890;9.190;2022-10-23T02:36:37;18.20;62.90
3770;DHT22;1900;48.890;9.190;2022-10-23T02:39:04;18.20;62.90
3770;DHT22;1900;48.890;9.190;2022-10-23T02:41:50;18.20;63.00
3770;DHT22;1900;48.890;9.190;2022-10-23T02:47:19;18.20;63.00
3770;DHT22;1900;48.890;9.190;2022-10-23T02:49:57;18.10;62.80
3770;DHT22;1900;48.890;9.190;2022-10-23T02:55:21;18.10;62.90
3770;DHT22;1900;48.890;9.190;2022-10-23T03:00:21;18.00;62.70
3770;DHT22;1900;48.890;9.190;2022-10-23T03:03:01;18.00;62.80
3770;DHT22;1900;48.890;9.190;2022-10-23T03:05:33;18.00;62.90
3770;DHT22;1900;48.890;9.190;2022-10-23T03:08:03;18.00;62.90
3770;DHT22;1900;48.890;9.190;2022-10-23T03:10:29;18.00;62.90
3770;DHT22;1900;48.890;9.190;2022-10-23T03:12:55;18.00;62.90
3770;DHT22;1900;48.890;9.190;2022-10-23T03:15:21;18.00;62.90
3770;DHT22;1900;48.890;9.190;2022-10-23T03:17:49;18.00;63.00
3770;DHT22;1900;48.890;9.190;2022-10-23T03:20:14;18.00;63.00
3770;DHT22;1900;48.890;9.190;2022-10-23T03:22:41;18.00;63.10
3770;DHT22;1900;48.890;9.190;2022-10-23T03:25:07;18.00;63.10
3770;DHT22;1900;48.890;9.190;2022-10-23T03:27:34;18.00;63.00
3770;DHT22;1900;48.890;9.190;2022-10-23T03:30:04;18.00;63.00
3770;DHT22;1900;48.890;9.190;2022-10-23T03:32:31;17.90;63.00
3770;DHT22;1900;48.890;9.190;2022-10-23T03:34:58;17.90;62.90
3770;DHT22;1900;48.890;9.190;2022-10-23T03:37:25;17.90;62.90
3770;DHT22;1900;48.890;9.190;2022-10-23T03:39:50;17.90;63.00
3770;DHT22;1900;48.890;9.190;2022-10-23T03:42:17;17.90;63.00
3770;DHT22;1900;48.890;9.190;2022-10-23T03:44:42;17.90;63.00
3770;DHT22;1900;48.890;9.190;2022-10-23T03:47:08;17.90;63.00
3770;DHT22;1900;48.890;9.190;2022-10-23T03:49:37;17.90;63.00
3770;DHT22;1900;48.890;9.190;2022-10-23T03:52:05;17.90;63.00
3770;DHT22;1900;48.890;9.190;2022-10-23T03:54:31;17.90;63.00
3770;DHT22;1900;48.890;9.190;2022-10-23T03:56:58;17.80;62.90
3770;DHT22;1900;48.890;9.190;2022-10-23T03:59:25;17.80;63.00
3770;DHT22;1900;48.890;9.190;2022-10-23T04:01:51;17.80;63.00
3770;DHT22;1900;48.890;9.190;2022-10-23T04:04:17;17.80;63.00
3770;DHT22;1900;48.890;9.190;2022-10-23T04:06:43;17.80;63.00
3770;DHT22;1900;48.890;9.190;2022-10-23T04:09:09;17.80;63.00
3770;DHT22;1900;48.890;9.190;2022-10-23T04:11:35;17.80;62.90
3770;DHT22;1900;48.890;9.190;2022-10-23T04:14:00;17.80;63.00
3770;DHT22;1900;48.890;9.190;2022-10-23T04:16:26;17.80;62.90
3770;DHT22;1900;48.890;9.190;2022-10-23T04:18:52;17.80;63.00
3770;DHT22;1900;48.890;9.190;2022-10-23T04:21:18;17.80;63.00
3770;DHT22;1900;48.890;9.190;2022-10-23T04:23:44;17.70;62.90
3770;DHT22;1900;48.890;9.190;2022-10-23T04:26:11;17.70;62.90
3770;DHT22;1900;48.890;9.190;2022-10-23T04:28:37;17.70;62.90
3770;DHT22;1900;48.890;9.190;2022-10-23T04:31:03;17.70;63.00
3770;DHT22;1900;48.890;9.190;2022-10-23T04:33:29;17.70;63.00
3770;DHT22;1900;48.890;9.190;2022-10-23T04:35:55;17.70;63.00
3770;DHT22;1900;48.890;9.190;2022-10-23T04:38:20;17.70;62.90
3770;DHT22;1900;48.890;9.190;2022-10-23T04:40:48;17.70;62.90
3770;DHT22;1900;48.890;9.190;2022-10-23T04:43:18;17.60;62.70
3770;DHT22;1900;48.890;9.190;2022-10-23T04:45:44;17.60;62.80
3770;DHT22;1900;48.890;9.190;2022-10-23T04:48:10;17.60;62.80
3770;DHT22;1900;48.890;9.190;2022-10-23T04:50:59;17.60;62.90
3770;DHT22;1900;48.890;9.190;2022-10-23T04:53:46;17.50;62.70
3770;DHT22;1900;48.890;9.190;2022-10-23T04:56:38;17.50;62.70
3770;DHT22;1900;48.890;9.190;2022-10-23T04:59:08;17.40;62.60
3770;DHT22;1900;48.890;9.190;2022-10-23T05:01:35;17.40;62.80
3770;DHT22;1900;48.890;9.190;2022-10-23T05:04:03;17.40;62.90
3770;DHT22;1900;48.890;9.190;2022-10-23T05:06:31;17.40;63.00
3770;DHT22;1900;48.890;9.190;2022-10-23T05:09:20;17.40;63.00
3770;DHT22;1900;48.890;9.190;2022-10-23T05:12:10;17.40;63.10
3770;DHT22;1900;48.890;9.190;2022-10-23T05:14:36;17.40;63.10
3770;DHT22;1900;48.890;9.190;2022-10-23T05:17:08;17.40;63.20
3770;DHT22;1900;48.890;9.190;2022-10-23T05:19:42;17.40;63.20
3770;DHT22;1900;48.890;9.190;2022-10-23T05:22:11;17.40;63.20
3770;DHT22;1900;48.890;9.190;2022-10-23T05:24:47;17.40;63.90
3770;DHT22;1900;48.890;9.190;2022-10-23T05:27:12;17.50;63.40
3770;DHT22;1900;48.890;9.190;2022-10-23T05:29:40;17.50;63.40
3770;DHT22;1900;48.890;9.190;2022-10-23T05:32:07;17.50;63.40
3770;DHT22;1900;48.890;9.190;2022-10-23T05:34:34;17.50;63.40
3770;DHT22;1900;48.890;9.190;2022-10-23T05:37:02;17.50;64.10
3770;DHT22;1900;48.890;9.190;2022-10-23T05:39:34;17.50;63.40
3770;DHT22;1900;48.890;9.190;2022-10-23T05:42:04;17.50;63.40
3770;DHT22;1900;48.890;9.190;2022-10-23T05:44:30;17.50;63.50
3770;DHT22;1900;48.890;9.190;2022-10-23T05:47:31;17.50;63.50
3770;DHT22;1900;48.890;9.190;2022-10-23T05:50:19;17.60;63.60
3770;DHT22;1900;48.890;9.190;2022-10-23T05:52:52;17.60;63.60
3770;DHT22;1900;48.890;9.190;2022-10-23T05:55:36;17.60;63.70
3770;DHT22;1900;48.890;9.190;2022-10-23T05:58:16;17.60;63.60
3770;DHT22;1900;48.890;9.190;2022-10-23T06:01:07;17.60;63.70
3770;DHT22;1900;48.890;9.190;2022-10-23T06:03:53;17.60;63.70
3770;DHT22;1900;48.890;9.190;2022-10-23T06:06:23;17.60;63.70
3770;DHT22;1900;48.890;9.190;2022-10-23T06:08:49;17.60;63.70
3770;DHT22;1900;48.890;9.190;2022-10-23T06:11:17;17.60;63.70
3770;DHT22;1900;48.890;9.190;2022-10-23T06:13:53;17.70;63.90
3770;DHT22;1900;48.890;9.190;2022-10-23T06:16:21;17.70;63.90
3770;DHT22;1900;48.890;9.190;2022-10-23T06:18:49;17.70;63.90
3770;DHT22;1900;48.890;9.190;2022-10-23T06:21:17;17.70;63.80
3770;DHT22;1900;48.890;9.190;2022-10-23T06:23:46;17.70;63.80
3770;DHT22;1900;48.890;9.190;2022-10-23T06:26:20;17.70;63.80
3770;DHT22;1900;48.890;9.190;2022-10-23T06:29:15;17.70;63.80
3770;DHT22;1900;48.890;9.190;2022-10-23T06:31:42;17.70;63.80
3770;DHT22;1900;48.890;9.190;2022-10-23T06:34:10;17.70;63.90
3770;DHT22;1900;48.890;9.190;2022-10-23T06:36:36;17.70;63.90
3770;DHT22;1900;48.890;9.190;2022-10-23T06:39:21;17.80;64.00
3770;DHT22;1900;48.890;9.190;2022-10-23T06:42:07;17.80;64.10
3770;DHT22;1900;48.890;9.190;2022-10-23T06:44:52;17.80;64.10
3770;DHT22;1900;48.890;9.190;2022-10-23T06:47:35;17.80;64.10
3770;DHT22;1900;48.890;9.190;2022-10-23T06:50:20;17.80;64.10
3770;DHT22;1900;48.890;9.190;2022-10-23T06:52:46;17.80;64.10
3770;DHT22;1900;48.890;9.190;2022-10-23T06:55:14;17.90;64.30
3770;DHT22;1900;48.890;9.190;2022-10-23T06:57:40;17.90;64.10
3770;DHT22;1900;48.890;9.190;2022-10-23T07:00:09;17.80;64.10
3770;DHT22;1900;48.890;9.190;2022-10-23T07:02:43;17.90;64.20
3770;DHT22;1900;48.890;9.190;2022-10-23T07:05:09;17.90;64.10
3770;DHT22;1900;48.890;9.190;2022-10-23T07:07:35;17.90;64.20
3770;DHT22;1900;48.890;9.190;2022-10-23T07:10:00;17.90;64.20
3770;DHT22;1900;48.890;9.190;2022-10-23T07:12:38;17.90;64.20
3770;DHT22;1900;48.890;9.190;2022-10-23T07:15:22;17.90;64.10
3770;DHT22;1900;48.890;9.190;2022-10-23T07:17:48;17.90;63.90
3770;DHT22;1900;48.890;9.190;2022-10-23T07:20:14;17.90;63.90
3770;DHT22;1900;48.890;9.190;2022-10-23T07:22:40;17.90;63.90
3770;DHT22;1900;48.890;9.190;2022-10-23T07:25:10;17.90;64.00
3770;DHT22;1900;48.890;9.190;2022-10-23T07:27:37;17.80;64.00
3770;DHT22;1900;48.890;9.190;2022-10-23T07:30:06;17.90;64.10
3770;DHT22;1900;48.890;9.190;2022-10-23T07:32:38;17.90;64.20
3770;DHT22;1900;48.890;9.190;2022-10-23T07:35:23;17.80;64.00
3770;DHT22;1900;48.890;9.190;2022-10-23T07:38:05;17.80;64.00
3770;DHT22;1900;48.890;9.190;2022-10-23T07:40:35;17.80;64.10
3770;DHT22;1900;48.890;9.190;2022-10-23T07:43:02;17.80;64.30
3770;DHT22;1900;48.890;9.190;2022-10-23T07:45:27;17.90;64.50
3770;DHT22;1900;48.890;9.190;2022-10-23T07:47:54;17.90;64.60
3770;DHT22;1900;48.890;9.190;2022-10-23T07:50:23;17.90;64.60
3770;DHT22;1900;48.890;9.190;2022-10-23T07:52:49;17.90;64.60
3770;DHT22;1900;48.890;9.190;2022-10-23T07:55:16;17.90;64.70
3770;DHT22;1900;48.890;9.190;2022-10-23T07:57:48;17.90;64.60
3770;DHT22;1900;48.890;9.190;2022-10-23T08:00:43;17.90;64.70
3770;DHT22;1900;48.890;9.190;2022-10-23T08:03:25;18.00;64.80
3770;DHT22;1900;48.890;9.190;2022-10-23T08:05:52;18.00;64.90
3770;DHT22;1900;48.890;9.190;2022-10-23T08:08:22;18.10;65.10
3770;DHT22;1900;48.890;9.190;2022-10-23T08:10:51;18.10;65.20
3770;DHT22;1900;48.890;9.190;2022-10-23T08:13:24;18.10;65.20
3770;DHT22;1900;48.890;9.190;2022-10-23T08:15:55;18.20;65.50
3770;DHT22;1900;48.890;9.190;2022-10-23T08:18:48;18.20;65.50
3770;DHT22;1900;48.890;9.190;2022-10-23T08:21:16;18.30;65.70
3770;DHT22;1900;48.890;9.190;2022-10-23T08:23:43;18.30;65.70
3770;DHT22;1900;48.890;9.190;2022-10-23T08:26:10;18.40;66.00
3770;DHT22;1900;48.890;9.190;2022-10-23T08:28:36;18.50;66.20
3770;DHT22;1900;48.890;9.190;2022-10-23T08:31:11;18.50;66.20
3770;DHT22;1900;48.890;9.190;2022-10-23T08:33:38;18.60;66.50
3770;DHT22;1900;48.890;9.190;2022-10-23T08:36:05;18.70;66.60
3770;DHT22;1900;48.890;9.190;2022-10-23T08:38:33;18.80;66.80
3770;DHT22;1900;48.890;9.190;2022-10-23T08:41:00;18.90;67.00
3770;DHT22;1900;48.890;9.190;2022-10-23T08:43:48;19.00;67.10
3770;DHT22;1900;48.890;9.190;2022-10-23T08:46:31;19.10;67.20
3770;DHT22;1900;48.890;9.190;2022-10-23T08:49:34;19.20;67.30
3770;DHT22;1900;48.890;9.190;2022-10-23T08:52:14;19.30;67.40
3770;DHT22;1900;48.890;9.190;2022-10-23T08:57:29;19.40;67.50
3770;DHT22;1900;48.890;9.190;2022-10-23T09:00:13;19.50;67.50
3770;DHT22;1900;48.890;9.190;2022-10-23T09:02:48;19.60;67.60
3770;DHT22;1900;48.890;9.190;2022-10-23T09:05:18;19.70;67.70
3770;DHT22;1900;48.890;9.190;2022-10-23T09:16:13;20.10;68.10
3770;DHT22;1900;48.890;9.190;2022-10-23T09:18:41;20.20;68.30
3770;DHT22;1900;48.890;9.190;2022-10-23T09:21:10;20.30;68.60
3770;DHT22;1900;48.890;9.190;2022-10-23T09:23:36;20.40;69.40
3770;DHT22;1900;48.890;9.190;2022-10-23T09:26:13;20.50;68.90
3770;DHT22;1900;48.890;9.190;2022-10-23T09:28:51;20.60;68.90
3770;DHT22;1900;48.890;9.190;2022-10-23T09:31:19;20.70;69.10
3770;DHT22;1900;48.890;9.190;2022-10-23T09:33:56;20.80;69.10
3770;DHT22;1900;48.890;9.190;2022-10-23T09:36:23;20.90;68.90
3770;DHT22;1900;48.890;9.190;2022-10-23T09:38:52;21.00;68.90
3770;DHT22;1900;48.890;9.190;2022-10-23T09:44:21;21.20;69.40
3770;DHT22;1900;48.890;9.190;2022-10-23T09:46:50;21.30;69.80
3770;DHT22;1900;48.890;9.190;2022-10-23T09:49:23;21.50;70.00
3770;DHT22;1900;48.890;9.190;2022-10-23T09:52:03;21.60;70.00
3770;DHT22;1900;48.890;9.190;2022-10-23T09:54:32;21.70;70.00
3770;DHT22;1900;48.890;9.190;2022-10-23T09:59:52;21.90;70.00
3770;DHT22;1900;48.890;9.190;2022-10-23T10:02:27;22.00;70.10
3770;DHT22;1900;48.890;9.190;2022-10-23T10:05:25;22.10;70.30
3770;DHT22;1900;48.890;9.190;2022-10-23T10:10:46;22.30;70.00
3770;DHT22;1900;48.890;9.190;2022-10-23T10:18:59;22.50;69.70
3770;DHT22;1900;48.890;9.190;2022-10-23T10:41:19;23.00;70.00
3770;DHT22;1900;48.890;9.190;2022-10-23T10:46:43;23.10;69.70
3770;DHT22;1900;48.890;9.190;2022-10-23T10:49:28;23.10;69.90
3770;DHT22;1900;48.890;9.190;2022-10-23T10:55:37;23.30;70.50
3770;DHT22;1900;48.890;9.190;2022-10-23T11:01:19;23.50;70.30
3770;DHT22;1900;48.890;9.190;2022-10-23T11:04:17;23.50;70.40
3770;DHT22;1900;48.890;9.190;2022-10-23T11:06:50;23.50;70.20
3770;DHT22;1900;48.890;9.190;2022-10-23T11:09:20;23.60;70.30
3770;DHT22;1900;48.890;9.190;2022-10-23T11:11:47;23.60;70.20
3770;DHT22;1900;48.890;9.190;2022-10-23T11:14:22;23.70;70.30
3770;DHT22;1900;48.890;9.190;2022-10-23T11:16:50;23.80;70.10
3770;DHT22;1900;48.890;9.190;2022-10-23T11:19:26;23.80;70.20
3770;DHT22;1900;48.890;9.190;2022-10-23T11:28:10;23.90;70.40
3770;DHT22;1900;48.890;9.190;2022-10-23T11:36:20;24.00;70.20
3770;DHT22;1900;48.890;9.190;2022-10-23T11:39:16;24.00;70.10
3770;DHT22;1900;48.890;9.190;2022-10-23T11:41:52;24.00;70.00
3770;DHT22;1900;48.890;9.190;2022-10-23T11:44:37;24.00;70.00
3770;DHT22;1900;48.890;9.190;2022-10-23T11:47:23;24.00;70.00
3770;DHT22;1900;48.890;9.190;2022-10-23T11:49:50;24.10;70.20
3770;DHT22;1900;48.890;9.190;2022-10-23T11:52:23;24.10;70.10
3770;DHT22;1900;48.890;9.190;2022-10-23T11:55:27;24.10;70.00
3770;DHT22;1900;48.890;9.190;2022-10-23T12:00:39;24.20;70.10
3770;DHT22;1900;48.890;9.190;2022-10-23T12:03:38;24.20;70.10
3770;DHT22;1900;48.890;9.190;2022-10-23T12:06:05;24.20;70.00
3770;DHT22;1900;48.890;9.190;2022-10-23T12:08:35;24.20;70.00
3770;DHT22;1900;48.890;9.190;2022-10-23T12:11:03;24.20;70.00
3770;DHT22;1900;48.890;9.190;2022-10-23T12:16:05;24.20;69.60
3770;DHT22;1900;48.890;9.190;2022-10-23T12:18:32;24.20;69.70
3770;DHT22;1900;48.890;9.190;2022-10-23T12:21:02;24.30;69.90
3770;DHT22;1900;48.890;9.190;2022-10-23T12:26:50;24.30;69.80
3770;DHT22;1900;48.890;9.190;2022-10-23T12:32:06;24.30;69.90
3770;DHT22;1900;48.890;9.190;2022-10-23T12:34:57;24.40;70.00
3770;DHT22;1900;48.890;9.190;2022-10-23T12:37:59;24.40;69.90
3770;DHT22;1900;48.890;9.190;2022-10-23T12:40:25;24.40;69.80
3770;DHT22;1900;48.890;9.190;2022-10-23T12:42:58;24.40;69.90
3770;DHT22;1900;48.890;9.190;2022-10-23T12:45:36;24.40;69.90
3770;DHT22;1900;48.890;9.190;2022-10-23T12:48:04;24.50;70.20
3770;DHT22;1900;48.890;9.190;2022-10-23T12:50:31;24.50;70.40
3770;DHT22;1900;48.890;9.190;2022-10-23T12:53:03;24.60;70.50
3770;DHT22;1900;48.890;9.190;2022-10-23T13:00:55;24.80;70.60
3770;DHT22;1900;48.890;9.190;2022-10-23T13:03:26;24.90;70.70
3770;DHT22;1900;48.890;9.190;2022-10-23T13:05:53;25.00;71.00
3770;DHT22;1900;48.890;9.190;2022-10-23T13:08:21;25.10;71.40
3770;DHT22;1900;48.890;9.190;2022-10-23T13:11:11;25.20;71.70
3770;DHT22;1900;48.890;9.190;2022-10-23T13:13:39;25.40;72.10
3770;DHT22;1900;48.890;9.190;2022-10-23T13:16:23;25.50;72.20
3770;DHT22;1900;48.890;9.190;2022-10-23T13:18:52;25.70;72.20
3770;DHT22;1900;48.890;9.190;2022-10-23T13:21:24;25.90;72.70
3770;DHT22;1900;48.890;9.190;2022-10-23T13:23:51;26.10;72.80
3770;DHT22;1900;48.890;9.190;2022-10-23T13:26:33;26.20;73.00
3770;DHT22;1900;48.890;9.190;2022-10-23T13:29:00;26.40;72.90
3770;DHT22;1900;48.890;9.190;2022-10-23T13:31:32;26.50;72.90
3770;DHT22;1900;48.890;9.190;2022-10-23T13:36:25;26.80;72.90
3770;DHT22;1900;48.890;9.190;2022-10-23T13:41:32;27.10;72.60
3770;DHT22;1900;48.890;9.190;2022-10-23T13:43:59;27.20;72.60
3770;DHT22;1900;48.890;9.190;2022-10-23T13:46:25;27.20;72.40
3770;DHT22;1900;48.890;9.190;2022-10-23T13:48:51;27.20;72.00
3770;DHT22;1900;48.890;9.190;2022-10-23T13:53:48;27.30;71.20
3770;DHT22;1900;48.890;9.190;2022-10-23T13:56:15;27.20;71.00
3770;DHT22;1900;48.890;9.190;2022-10-23T13:58:41;27.20;70.90
3770;DHT22;1900;48.890;9.190;2022-10-23T14:01:19;27.20;70.70
3770;DHT22;1900;48.890;9.190;2022-10-23T14:03:46;27.20;70.40
3770;DHT22;1900;48.890;9.190;2022-10-23T14:06:12;27.10;70.40
3770;DHT22;1900;48.890;9.190;2022-10-23T14:08:38;27.10;70.30
3770;DHT22;1900;48.890;9.190;2022-10-23T14:11:03;27.10;70.30
3770;DHT22;1900;48.890;9.190;2022-10-23T14:13:29;27.00;70.10
3770;DHT22;1900;48.890;9.190;2022-10-23T14:15:56;26.90;70.00
3770;DHT22;1900;48.890;9.190;2022-10-23T14:18:22;26.90;69.80
3770;DHT22;1900;48.890;9.190;2022-10-23T14:20:47;26.80;69.60
3770;DHT22;1900;48.890;9.190;2022-10-23T14:23:13;26.80;69.50
3770;DHT22;1900;48.890;9.190;2022-10-23T14:25:39;26.70;69.40
3770;DHT22;1900;48.890;9.190;2022-10-23T14:28:04;26.60;69.30
3770;DHT22;1900;48.890;9.190;2022-10-23T14:30:30;26.50;69.20
3770;DHT22;1900;48.890;9.190;2022-10-23T14:32:56;26.50;69.20
3770;DHT22;1900;48.890;9.190;2022-10-23T14:35:21;26.40;69.20
3770;DHT22;1900;48.890;9.190;2022-10-23T14:37:47;26.40;69.20
3770;DHT22;1900;48.890;9.190;2022-10-23T14:40:13;26.30;69.80
3770;DHT22;1900;48.890;9.190;2022-10-23T14:42:38;26.30;69.20
3770;DHT22;1900;48.890;9.190;2022-10-23T14:45:05;26.20;69.00
3770;DHT22;1900;48.890;9.190;2022-10-23T14:47:31;26.20;69.60
3770;DHT22;1900;48.890;9.190;2022-10-23T14:49:57;26.10;68.80
3770;DHT22;1900;48.890;9.190;2022-10-23T14:52:23;26.10;68.90
3770;DHT22;1900;48.890;9.190;2022-10-23T14:54:52;26.00;68.80
3770;DHT22;1900;48.890;9.190;2022-10-23T14:57:18;26.00;69.40
3770;DHT22;1900;48.890;9.190;2022-10-23T14:59:46;25.90;68.70
3770;DHT22;1900;48.890;9.190;2022-10-23T15:02:12;25.90;68.70
3770;DHT22;1900;48.890;9.190;2022-10-23T15:04:38;25.80;68.60
3770;DHT22;1900;48.890;9.190;2022-10-23T15:07:04;25.80;68.60
3770;DHT22;1900;48.890;9.190;2022-10-23T15:09:30;25.80;68.60
3770;DHT22;1900;48.890;9.190;2022-10-23T15:12:02;25.70;68.60
3770;DHT22;1900;48.890;9.190;2022-10-23T15:14:28;25.70;68.60
3770;DHT22;1900;48.890;9.190;2022-10-23T15:16:54;25.60;68.50
3770;DHT22;1900;48.890;9.190;2022-10-23T15:19:19;25.60;68.50
3770;DHT22;1900;48.890;9.190;2022-10-23T15:21:46;25.50;68.40
3770;DHT22;1900;48.890;9.190;2022-10-23T15:24:12;25.50;68.40
3770;DHT22;1900;48.890;9.190;2022-10-23T15:26:38;25.50;68.40
3770;DHT22;1900;48.890;9.190;2022-10-23T15:29:06;25.40;68.30
3770;DHT22;1900;48.890;9.190;2022-10-23T15:34:06;25.40;68.30
3770;DHT22;1900;48.890;9.190;2022-10-23T15:36:32;25.30;68.20
3770;DHT22;1900;48.890;9.190;2022-10-23T15:38:58;25.30;68.20
3770;DHT22;1900;48.890;9.190;2022-10-23T15:41:29;25.20;68.20
3770;DHT22;1900;48.890;9.190;2022-10-23T15:43:56;25.20;68.10
3770;DHT22;1900;48.890;9.190;2022-10-23T15:46:22;25.20;68.20
3770;DHT22;1900;48.890;9.190;2022-10-23T15:48:47;25.10;68.10
3770;DHT22;1900;48.890;9.190;2022-10-23T15:51:13;25.10;68.10
3770;DHT22;1900;48.890;9.190;2022-10-23T15:53:39;25.10;68.20
3770;DHT22;1900;48.890;9.190;2022-10-23T15:56:05;25.10;68.20
3770;DHT22;1900;48.890;9.190;2022-10-23T15:58:30;25.10;68.20
3770;DHT22;1900;48.890;9.190;2022-10-23T16:00:56;25.00;68.10
3770;DHT22;1900;48.890;9.190;2022-10-23T16:03:23;25.00;68.10
3770;DHT22;1900;48.890;9.190;2022-10-23T16:05:49;25.00;68.10
3770;DHT22;1900;48.890;9.190;2022-10-23T16:08:15;24.90;68.00
3770;DHT22;1900;48.890;9.190;2022-10-23T16:10:41;24.90;68.00
3770;DHT22;1900;48.890;9.190;2022-10-23T16:13:08;24.80;68.00
3770;DHT22;1900;48.890;9.190;2022-10-23T16:15:34;24.80;67.90
3770;DHT22;1900;48.890;9.190;2022-10-23T16:18:00;24.80;67.90
3770;DHT22;1900;48.890;9.190;2022-10-23T16:20:26;24.80;67.90
3770;DHT22;1900;48.890;9.190;2022-10-23T16:22:52;24.80;67.90
3770;DHT22;1900;48.890;9.190;2022-10-23T16:25:17;24.80;67.90
3770;DHT22;1900;48.890;9.190;2022-10-23T16:27:43;24.70;67.70
3770;DHT22;1900;48.890;9.190;2022-10-23T16:30:09;24.70;67.70
3770;DHT22;1900;48.890;9.190;2022-10-23T16:32:41;24.60;68.20
3770;DHT22;1900;48.890;9.190;2022-10-23T16:35:07;24.60;67.70
3770;DHT22;1900;48.890;9.190;2022-10-23T16:37:44;24.60;67.50
3770;DHT22;1900;48.890;9.190;2022-10-23T16:40:14;24.50;67.40
3770;DHT22;1900;48.890;9.190;2022-10-23T16:42:59;24.50;67.40
3770;DHT22;1900;48.890;9.190;2022-10-23T16:45:43;24.50;67.40
3770;DHT22;1900;48.890;9.190;2022-10-23T16:48:09;24.40;67.40
3770;DHT22;1900;48.890;9.190;2022-10-23T16:50:38;24.40;67.60
3770;DHT22;1900;48.890;9.190;2022-10-23T16:53:04;24.40;67.50
3770;DHT22;1900;48.890;9.190;2022-10-23T16:55:30;24.30;67.40
3770;DHT22;1900;48.890;9.190;2022-10-23T16:57:56;24.30;67.40
3770;DHT22;1900;48.890;9.190;2022-10-23T17:00:22;24.30;67.50
3770;DHT22;1900;48.890;9.190;2022-10-23T17:02:48;24.30;67.50
3770;DHT22;1900;48.890;9.190;2022-10-23T17:05:14;24.20;67.30
3770;DHT22;1900;48.890;9.190;2022-10-23T17:07:39;24.20;67.40
3770;DHT22;1900;48.890;9.190;2022-10-23T17:10:05;24.20;67.40
3770;DHT22;1900;48.890;9.190;2022-10-23T17:12:31;24.20;67.40
3770;DHT22;1900;48.890;9.190;2022-10-23T17:14:57;24.20;67.40
3770;DHT22;1900;48.890;9.190;2022-10-23T17:17:23;24.10;67.30
3770;DHT22;1900;48.890;9.190;2022-10-23T17:19:48;24.10;67.30
3770;DHT22;1900;48.890;9.190;2022-10-23T17:22:14;24.10;67.30
3770;DHT22;1900;48.890;9.190;2022-10-23T17:24:41;24.10;67.40
3770;DHT22;1900;48.890;9.190;2022-10-23T17:27:07;24.10;67.40
3770;DHT22;1900;48.890;9.190;2022-10-23T17:29:33;24.00;67.20
3770;DHT22;1900;48.890;9.190;2022-10-23T17:31:59;24.00;67.30
3770;DHT22;1900;48.890;9.190;2022-10-23T17:34:25;24.00;67.30
3770;DHT22;1900;48.890;9.190;2022-10-23T17:36:52;24.00;67.30
3770;DHT22;1900;48.890;9.190;2022-10-23T17:39:22;24.00;67.40
3770;DHT22;1900;48.890;9.190;2022-10-23T17:41:48;23.90;67.30
3770;DHT22;1900;48.890;9.190;2022-10-23T17:44:14;23.90;67.20
3770;DHT22;1900;48.890;9.190;2022-10-23T17:46:40;23.90;67.30
3770;DHT22;1900;48.890;9.190;2022-10-23T17:49:06;23.90;67.40
3770;DHT22;1900;48.890;9.190;2022-10-23T17:51:34;23.90;67.40
3770;DHT22;1900;48.890;9.190;2022-10-23T17:54:03;23.90;68.20
3770;DHT22;1900;48.890;9.190;2022-10-23T17:56:30;23.90;67.60
3770;DHT22;1900;48.890;9.190;2022-10-23T17:59:03;23.90;67.60
3770;DHT22;1900;48.890;9.190;2022-10-23T18:01:29;23.90;67.60
3770;DHT22;1900;48.890;9.190;2022-10-23T18:03:58;23.90;67.50
3770;DHT22;1900;48.890;9.190;2022-10-23T18:06:27;23.90;67.50
3770;DHT22;1900;48.890;9.190;2022-10-23T18:08:54;23.90;67.50
3770;DHT22;1900;48.890;9.190;2022-10-23T18:11:34;23.90;67.40
3770;DHT22;1900;48.890;9.190;2022-10-23T18:14:01;23.90;67.40
3770;DHT22;1900;48.890;9.190;2022-10-23T18:16:27;23.80;67.30
3770;DHT22;1900;48.890;9.190;2022-10-23T18:18:53;23.80;67.30
3770;DHT22;1900;48.890;9.190;2022-10-23T18:21:21;23.80;67.30
3770;DHT22;1900;48.890;9.190;2022-10-23T18:23:47;23.80;67.20